Terminal Aerodrome Forecast
Issued by NWS

Home | Current Version | Previous Version | Text Only | Print | Product List | Glossary On
Versions: 1 2 3 4 5 6 7 8 9 10 11 12 13 14 15 16 17 18 19 20 21 22 23 24 25 26
000
FTUS43 KGLD 201736
TAFMCK
TAF
KMCK 201736Z 2018/2118 VRB04KT P6SM FEW250
     FM210100 11006KT P6SM BKN250
     FM210600 15005KT P6SM FEW020 BKN200
     FM210900 18007KT 6SM BR SCT020 BKN150
     FM211500 19008KT P6SM BKN130=

USA.gov is the U.S. government's official web portal to all federal, state and local government web resources and services.